Kezdőlap
METAR-TAF:

METAR-TAF

Repülőterek :

Princeton Municipal Airport

Princeton, Minnesota, Amerikai Egyesült Államok

földrajzi szélesség: 45-33N, földrajzi hosszúság: 093-36W, magasság: 298 m

Jelenlegi meteorológiai megfigyelések

A jelentés 27 perccel ezelõtt készült, 20:35 UTC
Déli szél 8 kt széllökések: 17 kt
Hőmérséklet 30°C
Páratartalom 43%
Légköri nyomás 1010 hPa
Látótávolság: 16.1 km
Szórványos felhőzet 5000 lábon
zivatar

METAR: KPNM 302035Z AUTO 19008G17KT 10SM TS SCT050 30/16 A2982 RMK AO2 LTG DSNT N

Idő: 16:02 (21:02 UTC)


TAF: hiányzik

Meteorológiai megfigyelések és előrejelzések több, mint 4000 repülőtéren (METAR és TAF jelentéseket).

A térképen piros és sárga pontok jelzik az elérhető meteorológiai állomásokat.

Mozgassa az egeret a pont fölött, hogy megjelenjen az állomás neve.

Azután kattintson az időjárási megfigyelések és előrejelzések megtekintéséhez.

A térkép megváltoztatása: kattintson a fekete keresztel jelölt zöld gombra ráközelítéshez, a vonallal jelölt zöld gombra távolításhoz, vagy a zöld nyilakra a szomszédos térképek eléréséhez.


METAR-TAF: